sensor_id;sensor_type;location;lat;lon;timestamp;P1;durP1;ratioP1;P2;durP2;ratioP2
70725;SDS011;58304;53.104;6.022;2023-02-25T00:00:28;9.32;;;1.73;;
70725;SDS011;58304;53.104;6.022;2023-02-25T00:02:55;8.18;;;2.08;;
70725;SDS011;58304;53.104;6.022;2023-02-25T00:05:22;14.27;;;1.92;;
70725;SDS011;58304;53.104;6.022;2023-02-25T00:07:48;15.48;;;1.65;;
70725;SDS011;58304;53.104;6.022;2023-02-25T00:10:14;13.52;;;1.98;;
70725;SDS011;58304;53.104;6.022;2023-02-25T00:12:40;21.90;;;2.30;;
70725;SDS011;58304;53.104;6.022;2023-02-25T00:15:07;16.27;;;1.90;;
70725;SDS011;58304;53.104;6.022;2023-02-25T00:17:33;15.77;;;1.63;;
70725;SDS011;58304;53.104;6.022;2023-02-25T00:22:26;18.35;;;2.20;;
70725;SDS011;58304;53.104;6.022;2023-02-25T00:24:54;17.67;;;2.38;;
70725;SDS011;58304;53.104;6.022;2023-02-25T00:27:20;20.60;;;2.63;;
70725;SDS011;58304;53.104;6.022;2023-02-25T00:29:50;22.83;;;2.45;;
70725;SDS011;58304;53.104;6.022;2023-02-25T00:32:16;22.67;;;2.08;;
70725;SDS011;58304;53.104;6.022;2023-02-25T00:34:42;14.57;;;2.03;;
70725;SDS011;58304;53.104;6.022;2023-02-25T00:37:07;17.35;;;2.13;;
70725;SDS011;58304;53.104;6.022;2023-02-25T00:39:34;19.63;;;1.90;;
70725;SDS011;58304;53.104;6.022;2023-02-25T00:42:16;20.25;;;2.25;;
70725;SDS011;58304;53.104;6.022;2023-02-25T00:44:43;15.18;;;2.17;;
70725;SDS011;58304;53.104;6.022;2023-02-25T00:47:12;19.00;;;2.75;;
70725;SDS011;58304;53.104;6.022;2023-02-25T00:49:39;14.93;;;2.38;;
70725;SDS011;58304;53.104;6.022;2023-02-25T00:52:05;16.67;;;1.73;;
70725;SDS011;58304;53.104;6.022;2023-02-25T00:54:32;10.68;;;1.48;;
70725;SDS011;58304;53.104;6.022;2023-02-25T00:56:58;13.63;;;1.60;;
70725;SDS011;58304;53.104;6.022;2023-02-25T00:59:24;12.38;;;1.55;;
70725;SDS011;58304;53.104;6.022;2023-02-25T01:01:50;6.35;;;1.65;;
70725;SDS011;58304;53.104;6.022;2023-02-25T01:04:16;12.18;;;1.30;;
70725;SDS011;58304;53.104;6.022;2023-02-25T01:06:41;9.30;;;1.33;;
70725;SDS011;58304;53.104;6.022;2023-02-25T01:09:07;16.05;;;1.70;;
70725;SDS011;58304;53.104;6.022;2023-02-25T01:11:38;12.02;;;1.45;;
70725;SDS011;58304;53.104;6.022;2023-02-25T01:14:08;19.45;;;1.80;;
70725;SDS011;58304;53.104;6.022;2023-02-25T01:16:36;13.93;;;1.98;;
70725;SDS011;58304;53.104;6.022;2023-02-25T01:19:03;13.00;;;1.88;;
70725;SDS011;58304;53.104;6.022;2023-02-25T01:21:36;15.43;;;2.03;;
70725;SDS011;58304;53.104;6.022;2023-02-25T01:24:06;27.35;;;2.25;;
70725;SDS011;58304;53.104;6.022;2023-02-25T01:26:36;18.10;;;2.35;;
70725;SDS011;58304;53.104;6.022;2023-02-25T01:29:14;19.48;;;2.30;;
70725;SDS011;58304;53.104;6.022;2023-02-25T01:31:42;17.52;;;1.85;;
70725;SDS011;58304;53.104;6.022;2023-02-25T01:34:09;18.50;;;2.40;;
70725;SDS011;58304;53.104;6.022;2023-02-25T01:36:38;17.60;;;1.67;;
70725;SDS011;58304;53.104;6.022;2023-02-25T01:39:04;18.70;;;2.55;;
70725;SDS011;58304;53.104;6.022;2023-02-25T01:41:31;12.95;;;1.88;;
70725;SDS011;58304;53.104;6.022;2023-02-25T01:44:07;24.85;;;2.50;;
70725;SDS011;58304;53.104;6.022;2023-02-25T01:46:33;23.30;;;2.58;;
70725;SDS011;58304;53.104;6.022;2023-02-25T01:49:00;16.63;;;2.35;;
70725;SDS011;58304;53.104;6.022;2023-02-25T01:51:27;18.02;;;2.08;;
70725;SDS011;58304;53.104;6.022;2023-02-25T01:53:55;8.98;;;2.20;;
70725;SDS011;58304;53.104;6.022;2023-02-25T01:56:22;14.18;;;1.98;;
70725;SDS011;58304;53.104;6.022;2023-02-25T01:58:52;18.38;;;2.30;;
70725;SDS011;58304;53.104;6.022;2023-02-25T02:01:19;17.00;;;1.80;;
70725;SDS011;58304;53.104;6.022;2023-02-25T02:03:48;17.95;;;2.25;;
70725;SDS011;58304;53.104;6.022;2023-02-25T02:06:17;14.63;;;1.92;;
70725;SDS011;58304;53.104;6.022;2023-02-25T02:08:50;14.98;;;2.28;;
70725;SDS011;58304;53.104;6.022;2023-02-25T02:11:15;14.60;;;1.77;;
70725;SDS011;58304;53.104;6.022;2023-02-25T02:13:43;23.00;;;2.35;;
70725;SDS011;58304;53.104;6.022;2023-02-25T02:18:57;12.88;;;1.73;;
70725;SDS011;58304;53.104;6.022;2023-02-25T02:21:39;15.55;;;2.03;;
70725;SDS011;58304;53.104;6.022;2023-02-25T02:24:21;11.77;;;1.92;;
70725;SDS011;58304;53.104;6.022;2023-02-25T02:27:00;12.50;;;1.88;;
70725;SDS011;58304;53.104;6.022;2023-02-25T02:32:26;11.70;;;1.70;;
70725;SDS011;58304;53.104;6.022;2023-02-25T02:35:09;17.88;;;2.25;;
70725;SDS011;58304;53.104;6.022;2023-02-25T02:38:06;21.73;;;3.13;;
70725;SDS011;58304;53.104;6.022;2023-02-25T02:53:54;25.15;;;2.75;;
70725;SDS011;58304;53.104;6.022;2023-02-25T02:56:23;14.40;;;1.88;;
70725;SDS011;58304;53.104;6.022;2023-02-25T02:59:00;20.42;;;2.30;;
70725;SDS011;58304;53.104;6.022;2023-02-25T03:01:40;14.57;;;2.22;;
70725;SDS011;58304;53.104;6.022;2023-02-25T03:04:11;17.02;;;1.45;;
70725;SDS011;58304;53.104;6.022;2023-02-25T03:06:42;13.52;;;1.90;;
70725;SDS011;58304;53.104;6.022;2023-02-25T03:09:24;12.85;;;1.65;;
70725;SDS011;58304;53.104;6.022;2023-02-25T03:11:55;16.33;;;1.83;;
70725;SDS011;58304;53.104;6.022;2023-02-25T03:14:21;13.73;;;2.25;;
70725;SDS011;58304;53.104;6.022;2023-02-25T03:16:52;8.27;;;1.48;;
70725;SDS011;58304;53.104;6.022;2023-02-25T03:19:40;13.45;;;2.13;;
70725;SDS011;58304;53.104;6.022;2023-02-25T03:22:10;13.30;;;2.00;;
70725;SDS011;58304;53.104;6.022;2023-02-25T03:27:43;13.68;;;2.40;;
70725;SDS011;58304;53.104;6.022;2023-02-25T03:30:20;21.20;;;2.33;;
70725;SDS011;58304;53.104;6.022;2023-02-25T03:33:07;13.50;;;1.95;;
70725;SDS011;58304;53.104;6.022;2023-02-25T03:35:38;12.90;;;1.60;;
70725;SDS011;58304;53.104;6.022;2023-02-25T03:38:07;15.52;;;1.75;;
70725;SDS011;58304;53.104;6.022;2023-02-25T03:40:36;14.10;;;1.33;;
70725;SDS011;58304;53.104;6.022;2023-02-25T03:43:12;15.63;;;1.85;;
70725;SDS011;58304;53.104;6.022;2023-02-25T03:45:41;10.38;;;1.50;;
70725;SDS011;58304;53.104;6.022;2023-02-25T03:48:08;10.77;;;1.10;;
70725;SDS011;58304;53.104;6.022;2023-02-25T03:50:41;10.27;;;1.08;;
70725;SDS011;58304;53.104;6.022;2023-02-25T03:53:12;5.00;;;0.80;;
70725;SDS011;58304;53.104;6.022;2023-02-25T03:55:37;11.88;;;1.20;;
70725;SDS011;58304;53.104;6.022;2023-02-25T03:58:03;6.18;;;0.70;;
70725;SDS011;58304;53.104;6.022;2023-02-25T04:00:32;9.95;;;1.38;;
70725;SDS011;58304;53.104;6.022;2023-02-25T04:05:24;9.80;;;1.45;;
70725;SDS011;58304;53.104;6.022;2023-02-25T04:07:53;5.68;;;0.80;;
70725;SDS011;58304;53.104;6.022;2023-02-25T04:10:20;9.65;;;1.15;;
70725;SDS011;58304;53.104;6.022;2023-02-25T04:15:12;10.38;;;1.08;;
70725;SDS011;58304;53.104;6.022;2023-02-25T04:17:40;9.35;;;1.38;;
70725;SDS011;58304;53.104;6.022;2023-02-25T04:20:07;11.52;;;1.35;;
70725;SDS011;58304;53.104;6.022;2023-02-25T04:22:33;10.65;;;1.27;;
70725;SDS011;58304;53.104;6.022;2023-02-25T04:24:59;10.73;;;1.52;;
70725;SDS011;58304;53.104;6.022;2023-02-25T04:27:24;5.35;;;1.10;;
70725;SDS011;58304;53.104;6.022;2023-02-25T04:29:51;6.65;;;1.35;;
70725;SDS011;58304;53.104;6.022;2023-02-25T04:32:17;11.93;;;1.20;;
70725;SDS011;58304;53.104;6.022;2023-02-25T04:34:42;10.43;;;1.45;;
70725;SDS011;58304;53.104;6.022;2023-02-25T04:37:08;9.45;;;1.08;;
70725;SDS011;58304;53.104;6.022;2023-02-25T04:39:34;11.13;;;1.33;;
70725;SDS011;58304;53.104;6.022;2023-02-25T04:42:00;12.02;;;1.52;;
70725;SDS011;58304;53.104;6.022;2023-02-25T04:44:26;10.07;;;1.48;;
70725;SDS011;58304;53.104;6.022;2023-02-25T04:46:51;12.50;;;1.77;;
70725;SDS011;58304;53.104;6.022;2023-02-25T04:49:18;15.52;;;1.45;;
70725;SDS011;58304;53.104;6.022;2023-02-25T04:51:45;8.52;;;1.70;;
70725;SDS011;58304;53.104;6.022;2023-02-25T04:54:13;8.40;;;1.00;;
70725;SDS011;58304;53.104;6.022;2023-02-25T04:59:06;7.28;;;1.20;;
70725;SDS011;58304;53.104;6.022;2023-02-25T05:01:32;7.57;;;1.05;;
70725;SDS011;58304;53.104;6.022;2023-02-25T05:03:58;8.98;;;0.93;;
70725;SDS011;58304;53.104;6.022;2023-02-25T05:06:25;9.82;;;1.13;;
70725;SDS011;58304;53.104;6.022;2023-02-25T05:08:52;6.80;;;1.13;;
70725;SDS011;58304;53.104;6.022;2023-02-25T05:11:18;9.75;;;1.60;;
70725;SDS011;58304;53.104;6.022;2023-02-25T05:16:11;8.55;;;1.27;;
70725;SDS011;58304;53.104;6.022;2023-02-25T05:18:40;9.63;;;1.35;;
70725;SDS011;58304;53.104;6.022;2023-02-25T05:21:11;4.78;;;0.90;;
70725;SDS011;58304;53.104;6.022;2023-02-25T05:23:39;4.60;;;0.90;;
70725;SDS011;58304;53.104;6.022;2023-02-25T05:26:06;6.60;;;0.73;;
70725;SDS011;58304;53.104;6.022;2023-02-25T05:28:32;6.95;;;0.98;;
70725;SDS011;58304;53.104;6.022;2023-02-25T05:30:57;4.40;;;0.70;;
70725;SDS011;58304;53.104;6.022;2023-02-25T05:33:23;5.07;;;0.77;;
70725;SDS011;58304;53.104;6.022;2023-02-25T05:35:49;3.90;;;0.80;;
70725;SDS011;58304;53.104;6.022;2023-02-25T05:38:15;7.88;;;0.80;;
70725;SDS011;58304;53.104;6.022;2023-02-25T05:40:40;3.78;;;1.10;;
70725;SDS011;58304;53.104;6.022;2023-02-25T05:43:06;9.35;;;1.00;;
70725;SDS011;58304;53.104;6.022;2023-02-25T05:45:33;14.57;;;1.40;;
70725;SDS011;58304;53.104;6.022;2023-02-25T05:47:58;12.38;;;1.40;;
70725;SDS011;58304;53.104;6.022;2023-02-25T05:50:24;4.68;;;1.10;;
70725;SDS011;58304;53.104;6.022;2023-02-25T05:52:50;3.90;;;0.68;;
70725;SDS011;58304;53.104;6.022;2023-02-25T05:55:15;4.05;;;0.55;;
70725;SDS011;58304;53.104;6.022;2023-02-25T06:00:07;1.88;;;0.50;;
70725;SDS011;58304;53.104;6.022;2023-02-25T06:02:37;2.30;;;0.50;;
70725;SDS011;58304;53.104;6.022;2023-02-25T06:05:02;0.93;;;0.40;;
70725;SDS011;58304;53.104;6.022;2023-02-25T06:07:29;1.17;;;0.20;;
70725;SDS011;58304;53.104;6.022;2023-02-25T06:09:57;2.50;;;0.40;;
70725;SDS011;58304;53.104;6.022;2023-02-25T06:12:30;1.75;;;0.43;;
70725;SDS011;58304;53.104;6.022;2023-02-25T06:14:57;3.40;;;0.50;;
70725;SDS011;58304;53.104;6.022;2023-02-25T06:17:23;2.67;;;0.77;;
70725;SDS011;58304;53.104;6.022;2023-02-25T06:19:49;3.00;;;0.40;;
70725;SDS011;58304;53.104;6.022;2023-02-25T06:22:16;2.95;;;0.50;;
70725;SDS011;58304;53.104;6.022;2023-02-25T06:24:45;3.25;;;0.73;;
70725;SDS011;58304;53.104;6.022;2023-02-25T06:27:11;0.93;;;0.40;;
70725;SDS011;58304;53.104;6.022;2023-02-25T06:29:38;2.58;;;0.40;;
70725;SDS011;58304;53.104;6.022;2023-02-25T06:32:11;1.02;;;0.45;;
70725;SDS011;58304;53.104;6.022;2023-02-25T06:34:38;3.50;;;0.52;;
70725;SDS011;58304;53.104;6.022;2023-02-25T06:39:29;2.67;;;0.50;;
70725;SDS011;58304;53.104;6.022;2023-02-25T06:41:55;1.27;;;0.40;;
70725;SDS011;58304;53.104;6.022;2023-02-25T06:44:21;0.30;;;0.20;;
70725;SDS011;58304;53.104;6.022;2023-02-25T06:46:49;1.08;;;0.38;;
70725;SDS011;58304;53.104;6.022;2023-02-25T06:49:16;0.60;;;0.32;;
70725;SDS011;58304;53.104;6.022;2023-02-25T06:51:42;3.50;;;0.63;;
70725;SDS011;58304;53.104;6.022;2023-02-25T06:54:07;2.67;;;0.52;;
70725;SDS011;58304;53.104;6.022;2023-02-25T06:56:33;1.70;;;0.45;;
70725;SDS011;58304;53.104;6.022;2023-02-25T06:58:59;3.58;;;0.50;;
70725;SDS011;58304;53.104;6.022;2023-02-25T07:01:24;1.27;;;0.40;;
70725;SDS011;58304;53.104;6.022;2023-02-25T07:03:50;1.23;;;0.40;;
70725;SDS011;58304;53.104;6.022;2023-02-25T07:06:17;9.13;;;0.65;;
70725;SDS011;58304;53.104;6.022;2023-02-25T07:11:11;2.65;;;0.50;;
70725;SDS011;58304;53.104;6.022;2023-02-25T07:13:43;3.28;;;0.70;;
70725;SDS011;58304;53.104;6.022;2023-02-25T07:16:11;9.95;;;0.90;;
70725;SDS011;58304;53.104;6.022;2023-02-25T07:18:38;3.20;;;0.85;;
70725;SDS011;58304;53.104;6.022;2023-02-25T07:21:04;2.45;;;0.70;;
70725;SDS011;58304;53.104;6.022;2023-02-25T07:23:30;2.55;;;0.52;;
70725;SDS011;58304;53.104;6.022;2023-02-25T07:25:55;3.65;;;0.60;;
70725;SDS011;58304;53.104;6.022;2023-02-25T07:28:21;3.47;;;0.57;;
70725;SDS011;58304;53.104;6.022;2023-02-25T07:30:47;4.20;;;0.70;;
70725;SDS011;58304;53.104;6.022;2023-02-25T07:33:12;3.75;;;0.70;;
70725;SDS011;58304;53.104;6.022;2023-02-25T07:35:38;3.78;;;0.77;;
70725;SDS011;58304;53.104;6.022;2023-02-25T07:38:03;4.90;;;0.60;;
70725;SDS011;58304;53.104;6.022;2023-02-25T07:40:29;3.85;;;0.82;;
70725;SDS011;58304;53.104;6.022;2023-02-25T07:42:54;8.13;;;0.82;;
70725;SDS011;58304;53.104;6.022;2023-02-25T07:45:20;5.25;;;0.75;;
70725;SDS011;58304;53.104;6.022;2023-02-25T07:47:46;5.53;;;1.02;;
70725;SDS011;58304;53.104;6.022;2023-02-25T07:50:12;2.58;;;0.90;;
70725;SDS011;58304;53.104;6.022;2023-02-25T07:52:37;5.28;;;1.15;;
70725;SDS011;58304;53.104;6.022;2023-02-25T07:55:03;8.38;;;0.82;;
70725;SDS011;58304;53.104;6.022;2023-02-25T07:57:30;4.70;;;0.90;;
70725;SDS011;58304;53.104;6.022;2023-02-25T08:02:22;3.20;;;0.70;;
70725;SDS011;58304;53.104;6.022;2023-02-25T08:04:48;11.35;;;1.33;;
70725;SDS011;58304;53.104;6.022;2023-02-25T08:09:40;6.55;;;1.20;;
70725;SDS011;58304;53.104;6.022;2023-02-25T08:14:31;3.78;;;1.08;;
70725;SDS011;58304;53.104;6.022;2023-02-25T08:19:22;7.57;;;1.10;;
70725;SDS011;58304;53.104;6.022;2023-02-25T08:21:48;6.85;;;1.23;;
70725;SDS011;58304;53.104;6.022;2023-02-25T08:24:14;5.00;;;0.80;;
70725;SDS011;58304;53.104;6.022;2023-02-25T08:26:39;6.43;;;1.58;;
70725;SDS011;58304;53.104;6.022;2023-02-25T08:29:05;2.42;;;0.75;;
70725;SDS011;58304;53.104;6.022;2023-02-25T08:31:31;7.32;;;0.90;;
70725;SDS011;58304;53.104;6.022;2023-02-25T08:33:58;6.30;;;1.25;;
70725;SDS011;58304;53.104;6.022;2023-02-25T08:36:25;6.57;;;1.00;;
70725;SDS011;58304;53.104;6.022;2023-02-25T08:38:53;2.63;;;0.70;;
70725;SDS011;58304;53.104;6.022;2023-02-25T08:41:19;5.63;;;0.75;;
70725;SDS011;58304;53.104;6.022;2023-02-25T08:43:49;7.55;;;1.52;;
70725;SDS011;58304;53.104;6.022;2023-02-25T08:46:18;3.03;;;0.70;;
70725;SDS011;58304;53.104;6.022;2023-02-25T08:48:46;3.15;;;0.55;;
70725;SDS011;58304;53.104;6.022;2023-02-25T08:51:16;5.03;;;0.70;;
70725;SDS011;58304;53.104;6.022;2023-02-25T08:53:43;3.83;;;0.70;;
70725;SDS011;58304;53.104;6.022;2023-02-25T08:56:10;4.55;;;0.80;;
70725;SDS011;58304;53.104;6.022;2023-02-25T08:58:37;3.50;;;1.13;;
70725;SDS011;58304;53.104;6.022;2023-02-25T09:01:07;3.28;;;1.08;;
70725;SDS011;58304;53.104;6.022;2023-02-25T09:03:37;3.00;;;0.68;;
70725;SDS011;58304;53.104;6.022;2023-02-25T09:06:03;5.40;;;1.08;;
70725;SDS011;58304;53.104;6.022;2023-02-25T09:08:29;5.70;;;0.95;;
70725;SDS011;58304;53.104;6.022;2023-02-25T09:10:55;4.60;;;1.02;;
70725;SDS011;58304;53.104;6.022;2023-02-25T09:13:21;4.30;;;0.73;;
70725;SDS011;58304;53.104;6.022;2023-02-25T09:15:54;6.15;;;1.00;;
70725;SDS011;58304;53.104;6.022;2023-02-25T09:18:21;2.58;;;0.75;;
70725;SDS011;58304;53.104;6.022;2023-02-25T09:20:50;4.38;;;1.38;;
70725;SDS011;58304;53.104;6.022;2023-02-25T09:23:16;3.25;;;0.75;;
70725;SDS011;58304;53.104;6.022;2023-02-25T09:25:42;2.65;;;0.70;;
70725;SDS011;58304;53.104;6.022;2023-02-25T09:28:09;3.90;;;0.80;;
70725;SDS011;58304;53.104;6.022;2023-02-25T09:30:36;3.13;;;0.70;;
70725;SDS011;58304;53.104;6.022;2023-02-25T09:33:01;5.15;;;0.90;;
70725;SDS011;58304;53.104;6.022;2023-02-25T09:35:27;2.60;;;0.60;;
70725;SDS011;58304;53.104;6.022;2023-02-25T09:37:53;4.03;;;0.77;;
70725;SDS011;58304;53.104;6.022;2023-02-25T09:40:18;4.43;;;1.10;;
70725;SDS011;58304;53.104;6.022;2023-02-25T09:45:13;5.28;;;1.20;;
70725;SDS011;58304;53.104;6.022;2023-02-25T09:47:44;4.93;;;0.80;;
70725;SDS011;58304;53.104;6.022;2023-02-25T09:50:20;6.65;;;0.82;;
70725;SDS011;58304;53.104;6.022;2023-02-25T09:55:37;2.58;;;0.70;;
70725;SDS011;58304;53.104;6.022;2023-02-25T09:58:12;4.70;;;0.90;;
70725;SDS011;58304;53.104;6.022;2023-02-25T10:00:45;3.90;;;1.30;;
70725;SDS011;58304;53.104;6.022;2023-02-25T10:06:35;6.22;;;1.10;;
70725;SDS011;58304;53.104;6.022;2023-02-25T10:12:14;3.03;;;0.60;;
70725;SDS011;58304;53.104;6.022;2023-02-25T10:14:50;6.47;;;0.82;;
70725;SDS011;58304;53.104;6.022;2023-02-25T10:25:25;4.40;;;0.80;;
70725;SDS011;58304;53.104;6.022;2023-02-25T10:27:55;4.60;;;0.90;;
70725;SDS011;58304;53.104;6.022;2023-02-25T10:30:30;4.00;;;0.90;;
70725;SDS011;58304;53.104;6.022;2023-02-25T10:33:20;4.38;;;0.80;;
70725;SDS011;58304;53.104;6.022;2023-02-25T10:35:50;3.95;;;0.80;;
70725;SDS011;58304;53.104;6.022;2023-02-25T10:38:37;6.03;;;1.05;;
70725;SDS011;58304;53.104;6.022;2023-02-25T10:41:06;4.63;;;0.93;;
70725;SDS011;58304;53.104;6.022;2023-02-25T10:43:32;4.97;;;1.20;;
70725;SDS011;58304;53.104;6.022;2023-02-25T10:46:03;4.25;;;1.00;;
70725;SDS011;58304;53.104;6.022;2023-02-25T10:48:35;3.17;;;0.80;;
70725;SDS011;58304;53.104;6.022;2023-02-25T10:51:10;4.78;;;1.10;;
70725;SDS011;58304;53.104;6.022;2023-02-25T10:53:38;6.00;;;0.88;;
70725;SDS011;58304;53.104;6.022;2023-02-25T10:56:26;4.15;;;0.90;;
70725;SDS011;58304;53.104;6.022;2023-02-25T11:01:51;4.57;;;0.90;;
70725;SDS011;58304;53.104;6.022;2023-02-25T11:04:18;5.75;;;1.27;;
70725;SDS011;58304;53.104;6.022;2023-02-25T11:06:47;5.90;;;0.90;;
70725;SDS011;58304;53.104;6.022;2023-02-25T11:14:34;3.63;;;0.80;;
70725;SDS011;58304;53.104;6.022;2023-02-25T11:19:37;3.65;;;0.90;;
70725;SDS011;58304;53.104;6.022;2023-02-25T11:22:23;3.42;;;0.95;;
70725;SDS011;58304;53.104;6.022;2023-02-25T11:25:06;6.20;;;0.70;;
70725;SDS011;58304;53.104;6.022;2023-02-25T11:27:40;3.40;;;0.63;;
70725;SDS011;58304;53.104;6.022;2023-02-25T11:33:13;3.40;;;0.80;;
70725;SDS011;58304;53.104;6.022;2023-02-25T11:35:35;3.92;;;0.60;;
70725;SDS011;58304;53.104;6.022;2023-02-25T11:38:22;5.60;;;0.88;;
70725;SDS011;58304;53.104;6.022;2023-02-25T11:40:48;4.68;;;0.80;;
70725;SDS011;58304;53.104;6.022;2023-02-25T11:43:21;3.53;;;1.08;;
70725;SDS011;58304;53.104;6.022;2023-02-25T11:51:33;4.00;;;0.80;;
70725;SDS011;58304;53.104;6.022;2023-02-25T11:54:39;2.78;;;0.57;;
70725;SDS011;58304;53.104;6.022;2023-02-25T11:57:22;2.15;;;0.65;;
70725;SDS011;58304;53.104;6.022;2023-02-25T12:00:15;3.90;;;0.70;;
70725;SDS011;58304;53.104;6.022;2023-02-25T12:05:46;4.00;;;0.60;;
70725;SDS011;58304;53.104;6.022;2023-02-25T12:08:29;3.28;;;0.75;;
70725;SDS011;58304;53.104;6.022;2023-02-25T12:25:24;3.45;;;0.68;;
70725;SDS011;58304;53.104;6.022;2023-02-25T12:36:15;3.70;;;1.10;;
70725;SDS011;58304;53.104;6.022;2023-02-25T12:42:16;3.83;;;0.70;;
70725;SDS011;58304;53.104;6.022;2023-02-25T12:50:33;4.50;;;0.70;;
70725;SDS011;58304;53.104;6.022;2023-02-25T12:56:30;4.55;;;0.60;;
70725;SDS011;58304;53.104;6.022;2023-02-25T12:59:28;4.43;;;0.70;;
70725;SDS011;58304;53.104;6.022;2023-02-25T13:04:58;5.30;;;0.98;;
70725;SDS011;58304;53.104;6.022;2023-02-25T13:19:23;3.33;;;0.63;;
70725;SDS011;58304;53.104;6.022;2023-02-25T13:22:06;3.15;;;0.60;;
70725;SDS011;58304;53.104;6.022;2023-02-25T13:27:56;3.05;;;0.73;;
70725;SDS011;58304;53.104;6.022;2023-02-25T13:30:40;5.65;;;0.85;;
70725;SDS011;58304;53.104;6.022;2023-02-25T13:33:24;3.95;;;0.90;;
70725;SDS011;58304;53.104;6.022;2023-02-25T13:43:02;3.30;;;0.90;;
70725;SDS011;58304;53.104;6.022;2023-02-25T13:45:48;4.72;;;0.80;;
70725;SDS011;58304;53.104;6.022;2023-02-25T13:48:36;4.43;;;0.77;;
70725;SDS011;58304;53.104;6.022;2023-02-25T13:51:27;3.33;;;0.70;;
70725;SDS011;58304;53.104;6.022;2023-02-25T14:00:23;2.83;;;0.80;;
70725;SDS011;58304;53.104;6.022;2023-02-25T14:03:14;5.32;;;0.80;;
70725;SDS011;58304;53.104;6.022;2023-02-25T14:11:22;3.88;;;0.93;;
70725;SDS011;58304;53.104;6.022;2023-02-25T14:16:48;1.85;;;0.63;;
70725;SDS011;58304;53.104;6.022;2023-02-25T14:22:42;4.35;;;0.77;;
70725;SDS011;58304;53.104;6.022;2023-02-25T14:25:22;1.85;;;0.50;;
70725;SDS011;58304;53.104;6.022;2023-02-25T14:42:24;4.43;;;0.90;;
70725;SDS011;58304;53.104;6.022;2023-02-25T14:47:53;4.97;;;0.65;;
70725;SDS011;58304;53.104;6.022;2023-02-25T14:50:39;2.92;;;0.80;;
70725;SDS011;58304;53.104;6.022;2023-02-25T14:53:26;1.67;;;0.85;;
70725;SDS011;58304;53.104;6.022;2023-02-25T15:05:29;3.78;;;0.60;;
70725;SDS011;58304;53.104;6.022;2023-02-25T15:19:41;1.98;;;0.80;;
70725;SDS011;58304;53.104;6.022;2023-02-25T15:22:28;3.95;;;0.80;;
70725;SDS011;58304;53.104;6.022;2023-02-25T15:25:33;3.22;;;0.73;;
70725;SDS011;58304;53.104;6.022;2023-02-25T15:27:51;6.65;;;0.70;;
70725;SDS011;58304;53.104;6.022;2023-02-25T15:35:56;4.70;;;0.80;;
70725;SDS011;58304;53.104;6.022;2023-02-25T15:38:37;4.05;;;0.70;;
70725;SDS011;58304;53.104;6.022;2023-02-25T15:41:29;3.15;;;0.65;;
70725;SDS011;58304;53.104;6.022;2023-02-25T15:46:44;2.38;;;0.50;;
70725;SDS011;58304;53.104;6.022;2023-02-25T15:49:21;1.45;;;0.60;;
70725;SDS011;58304;53.104;6.022;2023-02-25T15:51:55;2.88;;;0.70;;
70725;SDS011;58304;53.104;6.022;2023-02-25T16:02:28;5.53;;;1.02;;
70725;SDS011;58304;53.104;6.022;2023-02-25T16:05:01;2.53;;;0.55;;
70725;SDS011;58304;53.104;6.022;2023-02-25T16:07:36;2.08;;;0.63;;
70725;SDS011;58304;53.104;6.022;2023-02-25T16:12:42;3.60;;;0.50;;
70725;SDS011;58304;53.104;6.022;2023-02-25T16:15:11;3.30;;;0.70;;
70725;SDS011;58304;53.104;6.022;2023-02-25T16:17:45;6.43;;;0.80;;
70725;SDS011;58304;53.104;6.022;2023-02-25T16:20:16;2.78;;;0.60;;
70725;SDS011;58304;53.104;6.022;2023-02-25T16:22:47;2.53;;;0.50;;
70725;SDS011;58304;53.104;6.022;2023-02-25T16:25:20;6.43;;;0.80;;
70725;SDS011;58304;53.104;6.022;2023-02-25T16:30:46;2.88;;;0.63;;
70725;SDS011;58304;53.104;6.022;2023-02-25T16:38:40;3.25;;;0.90;;
70725;SDS011;58304;53.104;6.022;2023-02-25T16:41:21;3.28;;;0.70;;
70725;SDS011;58304;53.104;6.022;2023-02-25T16:46:19;3.67;;;0.75;;
70725;SDS011;58304;53.104;6.022;2023-02-25T16:48:52;5.35;;;0.75;;
70725;SDS011;58304;53.104;6.022;2023-02-25T16:51:36;4.82;;;0.93;;
70725;SDS011;58304;53.104;6.022;2023-02-25T16:54:21;5.65;;;0.80;;
70725;SDS011;58304;53.104;6.022;2023-02-25T16:57:00;3.60;;;0.88;;
70725;SDS011;58304;53.104;6.022;2023-02-25T16:59:35;3.80;;;0.70;;
70725;SDS011;58304;53.104;6.022;2023-02-25T17:02:07;2.03;;;0.70;;
70725;SDS011;58304;53.104;6.022;2023-02-25T17:04:49;3.47;;;0.63;;
70725;SDS011;58304;53.104;6.022;2023-02-25T17:07:22;4.72;;;0.70;;
70725;SDS011;58304;53.104;6.022;2023-02-25T17:14:56;3.17;;;0.68;;
70725;SDS011;58304;53.104;6.022;2023-02-25T17:17:27;4.35;;;0.88;;
70725;SDS011;58304;53.104;6.022;2023-02-25T17:19:58;2.97;;;0.67;;
70725;SDS011;58304;53.104;6.022;2023-02-25T17:22:26;4.68;;;0.68;;
70725;SDS011;58304;53.104;6.022;2023-02-25T17:27:19;0.95;;;0.50;;
70725;SDS011;58304;53.104;6.022;2023-02-25T17:29:47;1.40;;;0.50;;
70725;SDS011;58304;53.104;6.022;2023-02-25T17:34:47;4.88;;;0.95;;
70725;SDS011;58304;53.104;6.022;2023-02-25T17:37:16;5.13;;;0.73;;
70725;SDS011;58304;53.104;6.022;2023-02-25T17:39:46;3.75;;;0.73;;
70725;SDS011;58304;53.104;6.022;2023-02-25T17:42:29;4.85;;;0.70;;
70725;SDS011;58304;53.104;6.022;2023-02-25T17:45:00;4.63;;;0.88;;
70725;SDS011;58304;53.104;6.022;2023-02-25T17:47:29;3.92;;;0.80;;
70725;SDS011;58304;53.104;6.022;2023-02-25T17:49:57;3.08;;;0.70;;
70725;SDS011;58304;53.104;6.022;2023-02-25T17:52:34;6.50;;;0.95;;
70725;SDS011;58304;53.104;6.022;2023-02-25T17:55:07;4.82;;;0.88;;
70725;SDS011;58304;53.104;6.022;2023-02-25T17:57:47;2.65;;;0.85;;
70725;SDS011;58304;53.104;6.022;2023-02-25T18:00:20;2.10;;;0.45;;
70725;SDS011;58304;53.104;6.022;2023-02-25T18:02:48;1.17;;;0.40;;
70725;SDS011;58304;53.104;6.022;2023-02-25T18:05:48;2.13;;;0.55;;
70725;SDS011;58304;53.104;6.022;2023-02-25T18:08:16;5.47;;;0.80;;
70725;SDS011;58304;53.104;6.022;2023-02-25T18:10:44;3.95;;;0.57;;
70725;SDS011;58304;53.104;6.022;2023-02-25T18:13:23;2.50;;;0.65;;
70725;SDS011;58304;53.104;6.022;2023-02-25T18:18:53;4.30;;;0.97;;
70725;SDS011;58304;53.104;6.022;2023-02-25T18:21:20;5.50;;;0.93;;
70725;SDS011;58304;53.104;6.022;2023-02-25T18:28:40;2.38;;;0.60;;
70725;SDS011;58304;53.104;6.022;2023-02-25T18:31:06;2.88;;;0.68;;
70725;SDS011;58304;53.104;6.022;2023-02-25T18:35:57;2.72;;;0.73;;
70725;SDS011;58304;53.104;6.022;2023-02-25T18:38:24;7.07;;;1.52;;
70725;SDS011;58304;53.104;6.022;2023-02-25T18:40:51;6.40;;;1.13;;
70725;SDS011;58304;53.104;6.022;2023-02-25T18:43:20;7.03;;;1.65;;
70725;SDS011;58304;53.104;6.022;2023-02-25T18:45:49;4.85;;;1.27;;
70725;SDS011;58304;53.104;6.022;2023-02-25T18:48:14;3.30;;;1.35;;
70725;SDS011;58304;53.104;6.022;2023-02-25T18:50:40;4.93;;;1.58;;
70725;SDS011;58304;53.104;6.022;2023-02-25T18:53:26;3.30;;;1.23;;
70725;SDS011;58304;53.104;6.022;2023-02-25T18:55:53;3.53;;;1.10;;
70725;SDS011;58304;53.104;6.022;2023-02-25T18:58:21;4.70;;;1.00;;
70725;SDS011;58304;53.104;6.022;2023-02-25T19:00:48;5.07;;;0.80;;
70725;SDS011;58304;53.104;6.022;2023-02-25T19:03:17;3.63;;;0.75;;
70725;SDS011;58304;53.104;6.022;2023-02-25T19:05:52;3.05;;;0.80;;
70725;SDS011;58304;53.104;6.022;2023-02-25T19:08:17;2.83;;;0.88;;
70725;SDS011;58304;53.104;6.022;2023-02-25T19:10:43;6.18;;;0.93;;
70725;SDS011;58304;53.104;6.022;2023-02-25T19:13:17;3.33;;;0.90;;
70725;SDS011;58304;53.104;6.022;2023-02-25T19:15:52;2.58;;;0.93;;
70725;SDS011;58304;53.104;6.022;2023-02-25T19:18:18;2.97;;;1.10;;
70725;SDS011;58304;53.104;6.022;2023-02-25T19:20:44;1.98;;;0.93;;
70725;SDS011;58304;53.104;6.022;2023-02-25T19:23:10;5.45;;;1.50;;